createdAt,value
2022-08-12T00:00:27.081Z,4.45
2022-08-12T00:03:47.423Z,4.50
2022-08-12T00:07:08.506Z,4.55
2022-08-12T00:10:28.918Z,4.50
2022-08-12T00:13:48.827Z,4.68
2022-08-12T00:17:09.321Z,4.60
2022-08-12T00:20:29.614Z,4.50
2022-08-12T00:23:50.490Z,4.75
2022-08-12T00:27:11.531Z,4.53
2022-08-12T00:30:32.075Z,4.65
2022-08-12T00:33:52.898Z,3.97
2022-08-12T00:37:14.695Z,4.20
2022-08-12T00:40:34.667Z,4.80
2022-08-12T00:43:36.869Z,4.60
2022-08-12T00:46:48.503Z,4.83
2022-08-12T00:49:50.235Z,4.88
2022-08-12T00:52:52.938Z,4.90
2022-08-12T00:55:58.689Z,4.53
2022-08-12T00:59:01.659Z,4.60
2022-08-12T01:02:12.065Z,4.47
2022-08-12T01:05:35.788Z,5.80
2022-08-12T01:08:56.411Z,4.40
2022-08-12T01:11:58.020Z,4.63
2022-08-12T01:15:01.275Z,4.53
2022-08-12T01:18:05.454Z,4.80
2022-08-12T01:21:29.497Z,5.25
2022-08-12T01:25:06.884Z,4.45
2022-08-12T01:28:13.594Z,4.63
2022-08-12T01:31:17.847Z,4.70
2022-08-12T01:34:36.498Z,4.80
2022-08-12T01:37:57.335Z,5.00
2022-08-12T01:41:01.406Z,4.57
2022-08-12T01:44:03.556Z,4.93
2022-08-12T01:47:30.405Z,4.95
2022-08-12T01:50:46.105Z,5.13
2022-08-12T01:54:04.536Z,5.05
2022-08-12T01:57:59.733Z,5.28
2022-08-12T02:01:01.221Z,5.25
2022-08-12T02:04:50.671Z,5.35
2022-08-12T02:08:30.741Z,6.03
2022-08-12T02:11:35.406Z,6.38
2022-08-12T02:14:49.122Z,6.65
2022-08-12T02:18:11.335Z,7.05
2022-08-12T02:21:38.544Z,6.22
2022-08-12T02:24:44.299Z,6.72
2022-08-12T02:27:49.343Z,6.55
2022-08-12T02:30:51.244Z,6.55
2022-08-12T02:33:53.684Z,5.97
2022-08-12T02:37:00.214Z,6.03
2022-08-12T02:40:07.458Z,5.70
2022-08-12T02:43:37.915Z,5.68
2022-08-12T02:46:41.707Z,6.00
2022-08-12T02:49:49.824Z,6.07
2022-08-12T02:52:52.248Z,6.72
2022-08-12T02:55:54.434Z,5.95
2022-08-12T02:58:58.023Z,6.45
2022-08-12T03:02:04.249Z,6.50
2022-08-12T03:05:06.286Z,6.10
2022-08-12T03:08:12.153Z,6.15
2022-08-12T03:11:42.653Z,6.45
2022-08-12T03:14:44.660Z,6.13
2022-08-12T03:18:26.058Z,5.93
2022-08-12T03:21:52.925Z,5.82
2022-08-12T03:24:58.874Z,5.53
2022-08-12T03:28:00.468Z,5.90
2022-08-12T03:31:06.054Z,6.15
2022-08-12T03:34:12.441Z,6.28
2022-08-12T03:37:15.460Z,6.40
2022-08-12T03:40:36.550Z,6.20
2022-08-12T03:44:15.071Z,6.63
2022-08-12T03:47:43.845Z,6.00
2022-08-12T03:51:04.681Z,6.40
2022-08-12T03:54:25.206Z,6.50
2022-08-12T03:57:46.071Z,6.65
2022-08-12T04:00:50.461Z,6.22
2022-08-12T04:03:52.312Z,6.50
2022-08-12T04:06:54.155Z,5.90
2022-08-12T04:09:57.627Z,6.57
2022-08-12T04:13:18.525Z,6.43
2022-08-12T04:16:20.722Z,6.38
2022-08-12T04:19:23.942Z,6.80
2022-08-12T04:22:37.851Z,6.40
2022-08-12T04:25:40.777Z,6.45
2022-08-12T04:28:43.844Z,6.53
2022-08-12T04:31:45.602Z,6.60
2022-08-12T04:34:47.183Z,6.90
2022-08-12T04:37:58.647Z,6.20
2022-08-12T04:41:03.666Z,6.85
2022-08-12T04:47:11.593Z,7.05
2022-08-12T04:50:34.112Z,6.80
2022-08-12T04:53:37.379Z,7.22
2022-08-12T04:56:40.398Z,7.53
2022-08-12T04:59:46.818Z,7.57
2022-08-12T05:02:50.427Z,8.10
2022-08-12T05:05:52.474Z,7.75
2022-08-12T05:08:55.483Z,7.57
2022-08-12T05:11:57.095Z,7.82
2022-08-12T05:14:59.295Z,8.57
2022-08-12T05:18:19.014Z,10.77
2022-08-12T05:21:21.389Z,13.65
2022-08-12T05:24:22.968Z,12.15
2022-08-12T05:27:24.532Z,21.60
2022-08-12T05:30:30.909Z,37.83
2022-08-12T05:33:40.918Z,21.88
2022-08-12T05:36:44.127Z,24.38
2022-08-12T05:42:47.761Z,17.48
2022-08-12T05:45:52.409Z,13.38
2022-08-12T05:48:54.957Z,11.35
2022-08-12T05:51:57.723Z,9.40
2022-08-12T05:54:59.354Z,9.30
2022-08-12T05:58:02.906Z,9.00
2022-08-12T06:02:09.528Z,9.05
2022-08-12T06:04:26.148Z,8.63
2022-08-12T06:08:00.793Z,8.23
2022-08-12T06:10:52.165Z,8.27
2022-08-12T06:13:55.610Z,8.43
2022-08-12T06:16:59.895Z,7.50
2022-08-12T06:20:27.030Z,8.05
2022-08-12T06:23:28.567Z,8.07
2022-08-12T06:26:30.143Z,7.57
2022-08-12T06:30:07.378Z,8.23
2022-08-12T06:33:11.435Z,7.60
2022-08-12T06:36:21.113Z,7.85
2022-08-12T06:39:24.154Z,7.30
2022-08-12T06:42:44.255Z,8.15
2022-08-12T06:45:49.485Z,7.50
2022-08-12T06:48:57.010Z,7.38
2022-08-12T06:51:58.619Z,7.22
2022-08-12T06:55:00.234Z,7.07
2022-08-12T06:58:07.507Z,7.35
2022-08-12T07:01:11.982Z,6.72
2022-08-12T07:04:35.643Z,5.93
2022-08-12T07:07:38.932Z,6.05
2022-08-12T07:10:47.515Z,5.15
2022-08-12T07:14:12.557Z,5.57
2022-08-12T07:17:14.828Z,5.35
2022-08-12T07:20:49.926Z,4.80
2022-08-12T07:23:41.575Z,5.43
2022-08-12T07:26:44.694Z,5.63
2022-08-12T07:29:57.924Z,5.28
2022-08-12T07:33:08.742Z,4.70
2022-08-12T07:36:14.053Z,4.57
2022-08-12T07:39:15.706Z,4.15
2022-08-12T07:42:17.291Z,3.85
2022-08-12T07:45:20.446Z,3.88
2022-08-12T07:48:24.197Z,3.80
2022-08-12T07:51:26.301Z,2.85
2022-08-12T07:54:27.884Z,2.60
2022-08-12T07:57:32.436Z,2.55
2022-08-12T08:00:37.066Z,2.85
2022-08-12T08:03:59.434Z,2.80
2022-08-12T08:07:01.872Z,2.72
2022-08-12T08:10:06.806Z,2.67
2022-08-12T08:13:11.913Z,2.38
2022-08-12T08:16:15.221Z,2.20
2022-08-12T08:19:20.697Z,2.22
2022-08-12T08:22:24.898Z,2.20
2022-08-12T08:25:43.787Z,2.35
2022-08-12T08:28:45.384Z,2.35
2022-08-12T08:31:52.344Z,2.70
2022-08-12T08:34:54.869Z,2.17
2022-08-12T08:38:07.763Z,2.35
2022-08-12T08:42:13.802Z,2.25
2022-08-12T08:44:58.055Z,2.10
2022-08-12T08:48:00.621Z,2.00
2022-08-12T08:51:06.068Z,1.90
2022-08-12T08:54:08.782Z,1.90
2022-08-12T08:57:10.683Z,2.30
2022-08-12T09:00:17.033Z,2.22
2022-08-12T09:05:08.252Z,1.90
2022-08-12T09:06:53.492Z,2.08
2022-08-12T09:10:02.487Z,2.03
2022-08-12T09:13:29.455Z,1.90
2022-08-12T09:16:46.102Z,1.80
2022-08-12T09:23:57.793Z,1.85
2022-08-12T09:30:11.094Z,1.60
2022-08-12T09:34:26.845Z,1.77
2022-08-12T09:36:58.329Z,1.90
2022-08-12T09:40:15.534Z,1.83
2022-08-12T09:43:53.726Z,2.03
2022-08-12T09:47:02.215Z,2.00
2022-08-12T09:50:20.303Z,2.00
2022-08-12T09:53:36.609Z,1.80
2022-08-12T09:57:01.893Z,1.73
2022-08-12T10:00:28.109Z,2.10
2022-08-12T10:03:33.790Z,1.70
2022-08-12T10:06:54.729Z,1.80
2022-08-12T10:09:59.229Z,1.70
2022-08-12T10:13:35.700Z,2.05
2022-08-12T10:16:44.366Z,2.05
2022-08-12T10:19:52.068Z,1.98
2022-08-12T10:22:59.148Z,2.05
2022-08-12T10:26:37.468Z,1.80
2022-08-12T10:30:40.546Z,1.77
2022-08-12T10:33:19.016Z,1.90
2022-08-12T10:36:40.035Z,1.95
2022-08-12T10:40:08.199Z,1.80
2022-08-12T10:43:25.874Z,1.65
2022-08-12T10:46:30.386Z,1.75
2022-08-12T10:50:05.736Z,1.77
2022-08-12T10:52:56.201Z,1.58
2022-08-12T10:55:57.767Z,1.83
2022-08-12T10:59:05.624Z,1.65
2022-08-12T11:04:25.452Z,1.90
2022-08-12T11:07:06.998Z,1.50
2022-08-12T11:08:58.604Z,1.60
2022-08-12T11:12:35.593Z,1.70
2022-08-12T11:16:02.704Z,2.15
2022-08-12T11:18:55.346Z,1.50
2022-08-12T11:22:01.260Z,1.70
2022-08-12T11:25:10.589Z,1.58
2022-08-12T11:28:14.343Z,1.67
2022-08-12T11:31:16.299Z,1.80
2022-08-12T11:34:52.564Z,1.67
2022-08-12T11:37:58.108Z,1.88
2022-08-12T11:41:05.026Z,1.60
2022-08-12T11:44:35.837Z,1.40
2022-08-12T11:47:28.214Z,1.30
2022-08-12T11:50:32.181Z,1.50
2022-08-12T11:53:58.460Z,1.58
2022-08-12T11:57:00.314Z,1.50
2022-08-12T12:06:27.949Z,1.60
2022-08-12T12:09:29.881Z,1.60
2022-08-12T12:12:51.558Z,1.92
2022-08-12T12:18:55.010Z,1.60
2022-08-12T12:21:56.604Z,1.70
2022-08-12T12:24:59.428Z,1.67
2022-08-12T12:28:37.046Z,1.63
2022-08-12T12:32:11.891Z,1.83
2022-08-12T12:35:14.334Z,1.80
2022-08-12T12:38:20.738Z,1.70
2022-08-12T12:42:41.507Z,1.75
2022-08-12T12:44:50.982Z,1.52
2022-08-12T12:47:56.789Z,1.63
2022-08-12T12:51:48.550Z,1.40
2022-08-12T12:54:39.117Z,1.63
2022-08-12T12:58:00.453Z,1.50
2022-08-12T13:01:04.778Z,1.40
2022-08-12T13:04:25.549Z,1.30
2022-08-12T13:07:49.076Z,1.63
2022-08-12T13:10:55.004Z,1.50
2022-08-12T13:14:07.500Z,1.55
2022-08-12T13:17:14.710Z,1.83
2022-08-12T13:20:38.292Z,1.40
2022-08-12T13:23:50.544Z,1.30
2022-08-12T13:26:52.310Z,1.35
2022-08-12T13:29:54.452Z,1.48
2022-08-12T13:32:58.755Z,1.40
2022-08-12T13:36:05.646Z,1.55
2022-08-12T13:39:07.927Z,1.42
2022-08-12T13:42:14.449Z,1.33
2022-08-12T13:45:16.788Z,1.65
2022-08-12T13:48:19.911Z,1.63
2022-08-12T13:51:24.380Z,1.60
2022-08-12T13:54:26.269Z,1.50
2022-08-12T13:57:44.362Z,1.30
2022-08-12T14:00:51.196Z,1.23
2022-08-12T14:03:54.023Z,1.40
2022-08-12T14:06:55.700Z,1.42
2022-08-12T14:10:16.244Z,1.20
2022-08-12T14:14:05.505Z,1.40
2022-08-12T14:16:48.994Z,1.52
2022-08-12T14:20:14.930Z,1.25
2022-08-12T14:24:05.511Z,1.40
2022-08-12T14:26:41.549Z,1.30
2022-08-12T14:30:04.105Z,1.33
2022-08-12T14:33:09.160Z,1.27
2022-08-12T14:36:13.019Z,1.30
2022-08-12T14:39:17.441Z,1.20
2022-08-12T14:42:19.928Z,1.40
2022-08-12T14:45:22.711Z,1.30
2022-08-12T14:48:24.721Z,1.05
2022-08-12T14:52:43.369Z,1.20
2022-08-12T14:58:11.699Z,1.15
2022-08-12T15:01:31.626Z,1.13
2022-08-12T15:04:33.193Z,1.25
2022-08-12T15:07:49.438Z,1.42
2022-08-12T15:10:54.512Z,1.20
2022-08-12T15:13:56.109Z,1.10
2022-08-12T15:17:00.224Z,1.30
2022-08-12T15:20:30.839Z,1.20
2022-08-12T15:23:29.046Z,1.30
2022-08-12T15:26:40.784Z,1.23
2022-08-12T15:29:42.608Z,1.50
2022-08-12T15:32:48.718Z,1.20
2022-08-12T15:35:53.909Z,1.20
2022-08-12T15:38:55.922Z,1.33
2022-08-12T15:45:04.139Z,1.30
2022-08-12T15:48:20.279Z,2.03
2022-08-12T15:51:57.289Z,1.20
2022-08-12T15:54:53.011Z,1.25
2022-08-12T15:58:01.830Z,1.23
2022-08-12T16:01:11.467Z,1.35
2022-08-12T16:04:13.579Z,1.30
2022-08-12T16:07:30.238Z,1.65
2022-08-12T16:10:36.886Z,1.55
2022-08-12T16:13:44.115Z,1.00
2022-08-12T16:16:48.589Z,1.33
2022-08-12T16:20:03.295Z,1.40
2022-08-12T16:23:26.211Z,1.20
2022-08-12T16:26:34.834Z,1.33
2022-08-12T16:29:52.392Z,1.17
2022-08-12T16:32:55.168Z,1.30
2022-08-12T16:35:58.888Z,1.20
2022-08-12T16:39:02.580Z,1.25
2022-08-12T16:42:04.476Z,1.00
2022-08-12T16:45:09.053Z,0.93
2022-08-12T16:48:33.708Z,0.90
2022-08-12T16:51:40.323Z,1.20
2022-08-12T16:54:44.109Z,1.05
2022-08-12T16:57:48.499Z,1.35
2022-08-12T17:00:51.815Z,0.95
2022-08-12T17:04:08.216Z,0.90
2022-08-12T17:07:17.123Z,1.20
2022-08-12T17:10:35.806Z,1.02
2022-08-12T17:13:53.108Z,0.80
2022-08-12T17:16:55.711Z,0.88
2022-08-12T17:23:48.000Z,0.90
2022-08-12T17:26:53.950Z,0.80
2022-08-12T17:30:01.151Z,0.82
2022-08-12T17:33:06.730Z,0.90
2022-08-12T17:36:10.710Z,1.05
2022-08-12T17:39:12.643Z,0.88
2022-08-12T17:42:34.773Z,0.90
2022-08-12T17:45:42.157Z,1.00
2022-08-12T17:48:55.152Z,0.95
2022-08-12T17:52:01.997Z,1.08
2022-08-12T17:55:22.892Z,0.90
2022-08-12T17:58:35.600Z,0.90
2022-08-12T18:01:41.298Z,0.95
2022-08-12T18:05:05.014Z,1.50
2022-08-12T18:08:11.053Z,0.90
2022-08-12T18:12:04.860Z,1.10
2022-08-12T18:15:00.982Z,1.02
2022-08-12T18:18:03.358Z,1.35
2022-08-12T18:21:10.625Z,1.00
2022-08-12T18:24:19.763Z,1.00
2022-08-12T18:27:30.247Z,1.10
2022-08-12T18:30:45.390Z,1.00
2022-08-12T18:34:00.630Z,1.60
2022-08-12T18:37:12.538Z,1.90
2022-08-12T18:40:45.728Z,1.50
2022-08-12T18:43:59.754Z,2.72
2022-08-12T18:47:04.919Z,1.60
2022-08-12T18:50:10.902Z,1.35
2022-08-12T18:54:05.199Z,2.40
2022-08-12T18:56:38.345Z,2.13
2022-08-12T19:00:01.553Z,2.10
2022-08-12T19:03:06.231Z,1.08
2022-08-12T19:06:28.220Z,1.23
2022-08-12T19:09:57.771Z,0.95
2022-08-12T19:13:23.324Z,0.90
2022-08-12T19:16:26.174Z,1.00
2022-08-12T19:19:41.306Z,1.00
2022-08-12T19:22:43.479Z,1.70
2022-08-12T19:26:03.385Z,2.30
2022-08-12T19:29:07.527Z,1.70
2022-08-12T19:32:12.492Z,1.50
2022-08-12T19:38:37.610Z,1.30
2022-08-12T19:42:01.050Z,1.50
2022-08-12T19:45:05.640Z,1.48
2022-08-12T19:48:17.360Z,1.30
2022-08-12T19:51:37.911Z,1.05
2022-08-12T19:54:43.919Z,1.20
2022-08-12T19:58:02.243Z,1.42
2022-08-12T20:01:10.861Z,1.30
2022-08-12T20:04:14.130Z,1.13
2022-08-12T20:07:23.905Z,1.25
2022-08-12T20:10:36.374Z,1.20
2022-08-12T20:13:42.022Z,1.30
2022-08-12T20:16:56.324Z,1.40
2022-08-12T20:20:19.243Z,1.20
2022-08-12T20:23:24.268Z,1.20
2022-08-12T20:26:46.384Z,1.25
2022-08-12T20:29:48.832Z,1.50
2022-08-12T20:32:58.431Z,1.40
2022-08-12T20:36:14.100Z,2.05
2022-08-12T20:39:52.944Z,1.80
2022-08-12T20:42:47.547Z,1.75
2022-08-12T20:45:57.254Z,1.80
2022-08-12T20:49:14.867Z,1.50
2022-08-12T20:52:19.292Z,1.45
2022-08-12T20:55:21.052Z,1.85
2022-08-12T20:58:23.264Z,1.67
2022-08-12T21:01:28.878Z,1.70
2022-08-12T21:04:57.173Z,1.60
2022-08-12T21:08:01.708Z,1.67
2022-08-12T21:11:03.978Z,1.70
2022-08-12T21:14:06.210Z,1.67
2022-08-12T21:17:15.774Z,1.60
2022-08-12T21:20:22.450Z,1.60
2022-08-12T21:23:25.444Z,1.52
2022-08-12T21:26:35.743Z,1.63
2022-08-12T21:29:55.057Z,1.70
2022-08-12T21:32:58.403Z,1.60
2022-08-12T21:36:02.645Z,1.65
2022-08-12T21:39:20.380Z,1.73
2022-08-12T21:42:27.786Z,1.60
2022-08-12T21:45:45.602Z,1.50
2022-08-12T21:48:56.777Z,1.70
2022-08-12T21:52:00.088Z,1.40
2022-08-12T21:55:03.118Z,1.70
2022-08-12T21:58:16.815Z,1.50
2022-08-12T22:01:22.981Z,1.50
2022-08-12T22:04:43.065Z,1.52
2022-08-12T22:07:55.189Z,1.70
2022-08-12T22:10:59.562Z,1.55
2022-08-12T22:14:08.248Z,1.40
2022-08-12T22:17:10.948Z,1.33
2022-08-12T22:20:21.899Z,1.40
2022-08-12T22:23:28.385Z,1.30
2022-08-12T22:26:37.860Z,1.20
2022-08-12T22:29:58.013Z,1.63
2022-08-12T22:33:08.035Z,1.35
2022-08-12T22:36:21.883Z,1.48
2022-08-12T22:39:28.248Z,1.52
2022-08-12T22:42:51.732Z,1.80
2022-08-12T22:46:30.393Z,1.80
2022-08-12T22:49:37.218Z,1.63
2022-08-12T22:52:51.544Z,1.77
2022-08-12T22:55:59.235Z,1.70
2022-08-12T22:59:04.196Z,1.73
2022-08-12T23:02:07.604Z,1.93
2022-08-12T23:05:13.001Z,1.65
2022-08-12T23:08:17.914Z,1.60
2022-08-12T23:11:23.754Z,1.70
2022-08-12T23:14:28.496Z,1.70
2022-08-12T23:17:41.012Z,1.58
2022-08-12T23:20:43.444Z,1.60
2022-08-12T23:27:44.476Z,1.70
2022-08-12T23:30:49.352Z,1.65
2022-08-12T23:34:00.555Z,1.60
2022-08-12T23:37:06.556Z,1.83
2022-08-12T23:40:15.107Z,1.67
2022-08-12T23:43:18.470Z,1.95
2022-08-12T23:46:25.812Z,1.80
2022-08-12T23:49:57.296Z,1.98
2022-08-12T23:52:51.401Z,1.98
2022-08-12T23:55:54.837Z,2.53
2022-08-12T23:58:57.514Z,2.70
